| time (UTC) | temp F | wind direction | speed MPH | gust MPH | rain 1hr in | rain 24hr in | rain mn in | humidity % | barometer mb |
| 20260508205004 | 65 | 256 | 3.0 | 7.0 | 0.00 | 0.00 | 0.00 | 49 | 1009.4 |
| 20260508204504 | 65 | 253 | 2.0 | 7.0 | 0.00 | 0.00 | 0.00 | 48 | 1009.4 |
| 20260508204004 | 65 | 261 | 3.0 | 8.0 | 0.00 | 0.00 | 0.00 | 48 | 1009.4 |
| 20260508203504 | 65 | 250 | 1.0 | 6.0 | 0.00 | 0.00 | 0.00 | 48 | 1009.5 |
| 20260508203004 | 65 | 305 | 3.0 | 10.0 | 0.00 | 0.00 | 0.00 | 47 | 1009.5 |
| 20260508202504 | 66 | 278 | 2.0 | 9.0 | 0.00 | 0.00 | 0.00 | 47 | 1009.5 |
| 20260508202004 | 65 | 250 | 4.0 | 12.0 | 0.00 | 0.00 | 0.00 | 47 | 1009.7 |
| 20260508201504 | 65 | 259 | 5.0 | 12.0 | 0.00 | 0.00 | 0.00 | 46 | 1009.7 |
| 20260508201004 | 65 | 237 | 6.0 | 10.0 | 0.00 | 0.00 | 0.00 | 46 | 1009.8 |
| 20260508200504 | 65 | 227 | 6.0 | 13.0 | 0.00 | 0.00 | 0.00 | 45 | 1009.8 |
| 20260508200004 | 66 | 264 | 5.0 | 8.0 | 0.00 | 0.00 | 0.00 | 45 | 1009.8 |
| 20260508195504 | 66 | 222 | 7.0 | 15.0 | 0.00 | 0.00 | 0.00 | 43 | 1009.8 |
| 20260508195004 | 66 | 226 | 6.0 | 17.0 | 0.00 | 0.00 | 0.00 | 45 | 1009.9 |
| 20260508194504 | 66 | 220 | 3.0 | 9.0 | 0.00 | 0.00 | 0.00 | 48 | 1009.8 |
| 20260508194004 | 66 | 316 | 3.0 | 7.0 | 0.00 | 0.00 | 0.00 | 49 | 1010.0 |
| 20260508193504 | 66 | 253 | 3.0 | 8.0 | 0.00 | 0.00 | 0.00 | 48 | 1010.0 |
| 20260508193004 | 66 | 221 | 4.0 | 9.0 | 0.00 | 0.00 | 0.00 | 48 | 1010.1 |
| 20260508192504 | 66 | 259 | 4.0 | 8.0 | 0.00 | 0.00 | 0.00 | 47 | 1010.3 |
| 20260508192005 | 66 | 279 | 2.0 | 6.0 | 0.00 | 0.00 | 0.00 | 49 | 1010.4 |
| 20260508191504 | 66 | 239 | 2.0 | 8.0 | 0.00 | 0.00 | 0.00 | 49 | 1010.5 |
| 20260508191004 | 66 | 258 | 6.0 | 14.0 | 0.00 | 0.00 | 0.00 | 47 | 1010.5 |
| 20260508190504 | 66 | 272 | 5.0 | 13.0 | 0.00 | 0.00 | 0.00 | 47 | 1010.5 |
| 20260508190004 | 66 | 275 | 7.0 | 17.0 | 0.00 | 0.00 | 0.00 | 47 | 1010.6 |
| 20260508185504 | 66 | 224 | 7.0 | 14.0 | 0.00 | 0.00 | 0.00 | 48 | 1010.7 |
| 20260508184004 | 66 | 246 | 6.0 | 16.0 | 0.00 | 0.00 | 0.00 | 48 | 1010.7 |
| 20260508183504 | 66 | 276 | 6.0 | 15.0 | 0.00 | 0.00 | 0.00 | 48 | 1010.8 |
| 20260508183004 | 66 | 245 | 6.0 | 13.0 | 0.00 | 0.00 | 0.00 | 48 | 1010.8 |
| 20260508182004 | 66 | 232 | 7.0 | 13.0 | 0.00 | 0.00 | 0.00 | 46 | 1010.9 |
| 20260508181504 | 67 | 239 | 5.0 | 14.0 | 0.00 | 0.00 | 0.00 | 46 | 1010.9 |
| 20260508180504 | 68 | 245 | 6.0 | 16.0 | 0.00 | 0.00 | 0.00 | 46 | 1011.0 |
| 20260508180004 | 68 | 217 | 4.0 | 9.0 | 0.00 | 0.00 | 0.00 | 47 | 1011.2 |
| 20260508175503 | 67 | 199 | 6.0 | 16.0 | 0.00 | 0.00 | 0.00 | 48 | 1011.1 |
| 20260508175004 | 67 | 283 | 6.0 | 14.0 | 0.00 | 0.00 | 0.00 | 47 | 1011.2 |
| 20260508174503 | 67 | 259 | 4.0 | 9.0 | 0.00 | 0.00 | 0.00 | 47 | 1011.3 |
| 20260508174004 | 68 | 223 | 5.0 | 9.0 | 0.00 | 0.00 | 0.00 | 47 | 1011.2 |
| 20260508173504 | 68 | 291 | 3.0 | 10.0 | 0.00 | 0.00 | 0.00 | 49 | 1011.6 |
| 20260508173004 | 67 | 233 | 3.0 | 13.0 | 0.00 | 0.00 | 0.00 | 50 | 1011.6 |
| 20260508172004 | 66 | 215 | 5.0 | 10.0 | 0.00 | 0.00 | 0.00 | 50 | 1011.7 |
| 20260508171004 | 66 | 259 | 5.0 | 8.0 | 0.00 | 0.00 | 0.00 | 50 | 1012.2 |
| 20260508170504 | 65 | 247 | 6.0 | 10.0 | 0.00 | 0.00 | 0.00 | 50 | 1012.3 |
| 20260508165504 | 64 | 239 | 5.0 | 18.0 | 0.00 | 0.00 | 0.00 | 52 | 1012.5 |
| 20260508165004 | 63 | 236 | 3.0 | 7.0 | 0.00 | 0.00 | 0.00 | 52 | 1012.6 |
| 20260508164504 | 63 | 283 | 3.0 | 9.0 | 0.00 | 0.00 | 0.00 | 53 | 1012.7 |
| 20260508164004 | 63 | 212 | 2.0 | 8.0 | 0.00 | 0.00 | 0.00 | 53 | 1012.7 |
| 20260508163504 | 63 | 243 | 4.0 | 7.0 | 0.00 | 0.00 | 0.00 | 52 | 1012.7 |
| 20260508163003 | 63 | 253 | 4.0 | 8.0 | 0.00 | 0.00 | 0.00 | 51 | 1012.7 |
| 20260508162504 | 63 | 271 | 3.0 | 8.0 | 0.00 | 0.00 | 0.00 | 50 | 1012.8 |
| 20260508161005 | 65 | 247 | 3.0 | 8.0 | 0.00 | 0.00 | 0.00 | 51 | 1012.9 |
| 20260508160506 | 64 | 256 | 5.0 | 9.0 | 0.00 | 0.00 | 0.00 | 51 | 1012.9 |
| 20260508160005 | 64 | 205 | 4.0 | 8.0 | 0.00 | 0.00 | 0.00 | 53 | 1012.9 |
| 20260508155505 | 62 | 254 | 3.0 | 8.0 | 0.00 | 0.00 | 0.00 | 54 | 1013.0 |
| 20260508155005 | 62 | 299 | 3.0 | 7.0 | 0.00 | 0.00 | 0.00 | 53 | 1013.0 |
| 20260508154005 | 62 | 287 | 3.0 | 8.0 | 0.00 | 0.00 | 0.00 | 52 | 1013.1 |
| 20260508153505 | 62 | 270 | 4.0 | 10.0 | 0.00 | 0.00 | 0.00 | 54 | 1013.1 |
| 20260508153005 | 62 | 317 | 2.0 | 6.0 | 0.00 | 0.00 | 0.00 | 54 | 1013.1 |
| 20260508152505 | 62 | 234 | 4.0 | 9.0 | 0.00 | 0.00 | 0.00 | 53 | 1013.1 |
| 20260508152004 | 63 | 249 | 5.0 | 7.0 | 0.00 | 0.00 | 0.00 | 52 | 1013.1 |
| 20260508151505 | 62 | 249 | 3.0 | 13.0 | 0.00 | 0.00 | 0.00 | 54 | 1013.1 |
| 20260508151004 | 62 | 216 | 3.0 | 8.0 | 0.00 | 0.00 | 0.00 | 54 | 1013.1 |
| 20260508150505 | 61 | 296 | 2.0 | 6.0 | 0.00 | 0.00 | 0.00 | 56 | 1013.3 |
| 20260508150005 | 61 | 256 | 3.0 | 6.0 | 0.00 | 0.00 | 0.00 | 55 | 1013.4 |
| 20260508145504 | 60 | 10 | 2.0 | 6.0 | 0.00 | 0.00 | 0.00 | 57 | 1013.4 |
| 20260508145005 | 59 | 342 | 4.0 | 7.0 | 0.00 | 0.00 | 0.00 | 56 | 1013.5 |
| 20260508144504 | 58 | 176 | 2.0 | 6.0 | 0.00 | 0.00 | 0.00 | 59 | 1013.6 |
| 20260508144005 | 58 | 254 | 2.0 | 6.0 | 0.00 | 0.00 | 0.00 | 60 | 1013.6 |
| 20260508143505 | 57 | 252 | 2.0 | 6.0 | 0.00 | 0.00 | 0.00 | 58 | 1013.8 |
| 20260508143004 | 57 | 152 | 1.0 | 6.0 | 0.00 | 0.00 | 0.00 | 60 | 1013.8 |
| 20260508142505 | 57 | 285 | 2.0 | 7.0 | 0.00 | 0.00 | 0.00 | 59 | 1013.8 |
| 20260508142005 | 56 | 225 | 1.0 | 5.0 | 0.00 | 0.00 | 0.00 | 61 | 1013.8 |
| 20260508141505 | 56 | 257 | 2.0 | 7.0 | 0.00 | 0.00 | 0.00 | 60 | 1013.8 |
| 20260508141005 | 56 | 250 | 2.0 | 6.0 | 0.00 | 0.00 | 0.00 | 62 | 1013.9 |
| 20260508140504 | 55 | 242 | 1.0 | 5.0 | 0.00 | 0.00 | 0.00 | 64 | 1013.9 |
| 20260508140005 | 54 | 274 | 2.0 | 6.0 | 0.00 | 0.00 | 0.00 | 62 | 1014.0 |
| 20260508135505 | 54 | 249 | 2.0 | 6.0 | 0.00 | 0.00 | 0.00 | 63 | 1014.1 |
| 20260508135004 | 53 | 242 | 1.0 | 5.0 | 0.00 | 0.00 | 0.00 | 64 | 1014.1 |
| 20260508134004 | 53 | 227 | 3.0 | 7.0 | 0.00 | 0.00 | 0.00 | 65 | 1013.9 |
| 20260508133505 | 52 | 254 | 1.0 | 5.0 | 0.00 | 0.00 | 0.00 | 66 | 1013.9 |
| 20260508133004 | 52 | 228 | 2.0 | 6.0 | 0.00 | 0.00 | 0.00 | 67 | 1014.0 |
| 20260508132505 | 52 | 230 | 2.0 | 6.0 | 0.00 | 0.00 | 0.00 | 66 | 1013.9 |
| 20260508132004 | 51 | 238 | 2.0 | 6.0 | 0.00 | 0.00 | 0.00 | 67 | 1013.9 |
| 20260508131505 | 51 | 226 | 3.0 | 6.0 | 0.00 | 0.00 | 0.00 | 67 | 1013.9 |
| 20260508131004 | 51 | 232 | 2.0 | 6.0 | 0.00 | 0.00 | 0.00 | 67 | 1013.9 |
| 20260508130504 | 51 | 232 | 1.0 | 6.0 | 0.00 | 0.00 | 0.00 | 66 | 1013.9 |
| 20260508125005 | 51 | 232 | 2.0 | 6.0 | 0.00 | 0.00 | 0.00 | 66 | 1013.9 |
| 20260508124005 | 51 | 223 | 2.0 | 6.0 | 0.00 | 0.00 | 0.00 | 65 | 1013.9 |
| 20260508123505 | 51 | 232 | 3.0 | 7.0 | 0.00 | 0.00 | 0.00 | 65 | 1013.9 |
| 20260508123004 | 51 | 251 | 1.0 | 6.0 | 0.00 | 0.00 | 0.00 | 67 | 1013.8 |
| 20260508122505 | 50 | 225 | 3.0 | 6.0 | 0.00 | 0.00 | 0.00 | 67 | 1013.8 |
| 20260508122004 | 50 | 232 | 2.0 | 6.0 | 0.00 | 0.00 | 0.00 | 68 | 1013.8 |
| 20260508121505 | 49 | 235 | 2.0 | 6.0 | 0.00 | 0.00 | 0.00 | 68 | 1013.8 |
| 20260508120505 | 49 | 218 | 2.0 | 3.0 | 0.00 | 0.00 | 0.00 | 69 | 1013.8 |
| 20260508120004 | 49 | 218 | 2.0 | 5.0 | 0.00 | 0.00 | 0.00 | 69 | 1013.8 |
| 20260508115506 | 49 | 224 | 1.0 | 3.0 | 0.00 | 0.00 | 0.00 | 69 | 1013.8 |
| 20260508115005 | 48 | 223 | 1.0 | 5.0 | 0.00 | 0.00 | 0.00 | 69 | 1013.8 |
| 20260508114504 | 48 | 195 | 2.0 | 5.0 | 0.00 | 0.00 | 0.00 | 69 | 1013.7 |
| 20260508114005 | 48 | 220 | 2.0 | 3.0 | 0.00 | 0.00 | 0.00 | 70 | 1013.7 |
| 20260508112504 | 47 | 219 | 0.0 | 1.0 | 0.00 | 0.00 | 0.00 | 71 | 1013.5 |
| 20260508112004 | 47 | 226 | 0.0 | 1.0 | 0.00 | 0.00 | 0.00 | 71 | 1013.4 |
| 20260508111505 | 46 | 223 | 1.0 | 2.0 | 0.00 | 0.00 | 0.00 | 71 | 1013.5 |
| 20260508111004 | 46 | 217 | 1.0 | 3.0 | 0.00 | 0.00 | 0.00 | 71 | 1013.4 |
| 20260508110505 | 46 | 212 | 1.0 | 3.0 | 0.00 | 0.00 | 0.00 | 71 | 1013.4 |
| 20260508110005 | 46 | 231 | 1.0 | 3.0 | 0.00 | 0.00 | 0.00 | 71 | 1013.4 |
| 20260508105005 | 46 | 224 | 1.0 | 3.0 | 0.00 | 0.00 | 0.00 | 70 | 1013.3 |
| 20260508104004 | 46 | 234 | 1.0 | 5.0 | 0.00 | 0.00 | 0.00 | 70 | 1013.3 |
| 20260508103504 | 46 | 238 | 1.0 | 5.0 | 0.00 | 0.00 | 0.00 | 70 | 1013.2 |
| 20260508103004 | 46 | 220 | 1.0 | 3.0 | 0.00 | 0.00 | 0.00 | 70 | 1013.2 |
| 20260508102504 | 46 | 250 | 1.0 | 3.0 | 0.00 | 0.00 | 0.00 | 70 | 1013.2 |
| 20260508102004 | 46 | 235 | 2.0 | 3.0 | 0.00 | 0.00 | 0.00 | 70 | 1013.2 |
| 20260508101004 | 46 | 229 | 1.0 | 2.0 | 0.00 | 0.00 | 0.00 | 69 | 1013.1 |
| 20260508100505 | 46 | 226 | 0.0 | 3.0 | 0.00 | 0.00 | 0.00 | 69 | 1013.2 |
| 20260508100004 | 46 | 244 | 1.0 | 6.0 | 0.00 | 0.00 | 0.00 | 69 | 1013.2 |
| 20260508095504 | 46 | 238 | 2.0 | 6.0 | 0.00 | 0.00 | 0.00 | 69 | 1013.2 |
| 20260508095005 | 46 | 224 | 2.0 | 5.0 | 0.00 | 0.00 | 0.00 | 69 | 1013.1 |
| 20260508094504 | 46 | 226 | 2.0 | 5.0 | 0.00 | 0.00 | 0.00 | 69 | 1013.2 |
| 20260508094005 | 46 | 227 | 2.0 | 5.0 | 0.00 | 0.00 | 0.00 | 69 | 1013.2 |
| 20260508093505 | 46 | 228 | 1.0 | 5.0 | 0.00 | 0.00 | 0.00 | 69 | 1013.1 |
| 20260508093004 | 46 | 198 | 1.0 | 3.0 | 0.00 | 0.00 | 0.00 | 69 | 1013.2 |
| 20260508092504 | 46 | 220 | 0.0 | 2.0 | 0.00 | 0.00 | 0.00 | 69 | 1013.1 |
| 20260508092004 | 46 | 221 | 2.0 | 5.0 | 0.00 | 0.00 | 0.00 | 69 | 1013.1 |
| 20260508091504 | 46 | 247 | 0.0 | 2.0 | 0.00 | 0.00 | 0.00 | 69 | 1013.1 |
| 20260508091005 | 46 | 216 | 2.0 | 6.0 | 0.00 | 0.00 | 0.00 | 69 | 1013.2 |
| 20260508090504 | 46 | 215 | 1.0 | 3.0 | 0.00 | 0.00 | 0.00 | 69 | 1013.2 |
| 20260508090005 | 46 | 224 | 2.0 | 6.0 | 0.00 | 0.00 | 0.00 | 68 | 1013.3 |
| 20260508085504 | 46 | 224 | 2.0 | 5.0 | 0.00 | 0.00 | 0.00 | 68 | 1013.3 |
| 20260508085004 | 46 | 221 | 1.0 | 3.0 | 0.00 | 0.00 | 0.00 | 69 | 1013.3 |
| 20260508084504 | 46 | 242 | 0.0 | 2.0 | 0.00 | 0.00 | 0.00 | 68 | 1013.4 |
| 20260508084004 | 46 | 242 | 1.0 | 3.0 | 0.00 | 0.00 | 0.00 | 68 | 1013.3 |
| 20260508083504 | 47 | 225 | 1.0 | 2.0 | 0.00 | 0.00 | 0.00 | 68 | 1013.3 |
| 20260508083005 | 47 | 233 | 0.0 | 2.0 | 0.00 | 0.00 | 0.00 | 68 | 1013.3 |
| 20260508081505 | 47 | 224 | 1.0 | 2.0 | 0.00 | 0.00 | 0.00 | 67 | 1013.3 |
| 20260508081004 | 47 | 215 | 2.0 | 6.0 | 0.00 | 0.00 | 0.00 | 67 | 1013.3 |
| 20260508080004 | 47 | 241 | 1.0 | 3.0 | 0.00 | 0.00 | 0.00 | 67 | 1013.3 |
| 20260508075004 | 47 | 235 | 1.0 | 3.0 | 0.00 | 0.00 | 0.00 | 67 | 1013.4 |
| 20260508074504 | 47 | 207 | 1.0 | 2.0 | 0.00 | 0.00 | 0.00 | 67 | 1013.3 |
| 20260508074004 | 47 | 231 | 1.0 | 3.0 | 0.00 | 0.00 | 0.00 | 67 | 1013.4 |
| 20260508073504 | 47 | 214 | 0.0 | 2.0 | 0.00 | 0.00 | 0.00 | 66 | 1013.4 |
| 20260508073004 | 48 | 226 | 0.0 | 0.0 | 0.00 | 0.00 | 0.00 | 66 | 1013.4 |
| 20260508072503 | 48 | 230 | 0.0 | 1.0 | 0.00 | 0.00 | 0.00 | 66 | 1013.4 |
| 20260508072004 | 48 | 226 | 0.0 | 2.0 | 0.00 | 0.00 | 0.00 | 65 | 1013.5 |
| 20260508071504 | 48 | 242 | 0.0 | 2.0 | 0.00 | 0.00 | 0.00 | 65 | 1013.5 |
| 20260508070504 | 49 | 226 | 0.0 | 2.0 | 0.00 | 0.00 | 0.00 | 64 | 1013.6 |
| 20260508070004 | 49 | 314 | 0.0 | 1.0 | 0.00 | 0.00 | 0.00 | 63 | 1013.6 |
| 20260508065504 | 49 | 235 | 1.0 | 3.0 | 0.00 | 0.00 | 0.00 | 63 | 1013.6 |
| 20260508064503 | 50 | 230 | 0.0 | 3.0 | 0.00 | 0.00 | 0.00 | 61 | 1013.7 |
| 20260508064004 | 50 | 258 | 2.0 | 10.0 | 0.00 | 0.00 | 0.00 | 61 | 1013.7 |
| 20260508063505 | 50 | 234 | 2.0 | 6.0 | 0.00 | 0.00 | 0.00 | 62 | 1013.7 |
| 20260508063004 | 50 | 234 | 2.0 | 7.0 | 0.00 | 0.00 | 0.00 | 62 | 1013.7 |
| 20260508062504 | 50 | 134 | 2.0 | 3.0 | 0.00 | 0.00 | 0.00 | 64 | 1013.8 |
| 20260508062004 | 50 | 85 | 2.0 | 5.0 | 0.00 | 0.00 | 0.00 | 64 | 1014.0 |
| 20260508061503 | 51 | 13 | 2.0 | 8.0 | 0.00 | 0.00 | 0.00 | 63 | 1014.2 |
| 20260508061004 | 51 | 11 | 4.0 | 8.0 | 0.00 | 0.00 | 0.00 | 60 | 1014.1 |
| 20260508060505 | 51 | 232 | 1.0 | 6.0 | 0.00 | 0.00 | 0.00 | 60 | 1013.6 |
| 20260508060004 | 51 | 236 | 3.0 | 6.0 | 0.00 | 0.00 | 0.00 | 60 | 1013.5 |
| 20260508055504 | 51 | 241 | 1.0 | 6.0 | 0.00 | 0.00 | 0.00 | 60 | 1013.7 |
| 20260508055004 | 51 | 241 | 2.0 | 6.0 | 0.00 | 0.00 | 0.00 | 60 | 1013.6 |
| 20260508054503 | 51 | 255 | 3.0 | 6.0 | 0.00 | 0.00 | 0.00 | 60 | 1013.7 |
| 20260508054004 | 51 | 233 | 2.0 | 6.0 | 0.00 | 0.00 | 0.00 | 61 | 1013.7 |
| 20260508053504 | 50 | 225 | 2.0 | 5.0 | 0.00 | 0.00 | 0.00 | 61 | 1013.7 |
| 20260508053003 | 50 | 242 | 1.0 | 3.0 | 0.00 | 0.00 | 0.00 | 62 | 1013.7 |
| 20260508052504 | 50 | 202 | 1.0 | 3.0 | 0.00 | 0.00 | 0.00 | 62 | 1013.7 |
| 20260508052004 | 50 | 235 | 1.0 | 3.0 | 0.00 | 0.00 | 0.00 | 62 | 1013.8 |
| 20260508051504 | 50 | 231 | 1.0 | 2.0 | 0.00 | 0.00 | 0.00 | 63 | 1013.8 |
| 20260508051004 | 50 | 206 | 1.0 | 3.0 | 0.00 | 0.00 | 0.00 | 63 | 1013.7 |
| 20260508045504 | 50 | 239 | 2.0 | 3.0 | 0.00 | 0.00 | 0.00 | 64 | 1013.8 |
| 20260508045003 | 50 | 219 | 3.0 | 6.0 | 0.00 | 0.00 | 0.00 | 63 | 1013.8 |
| 20260508044003 | 50 | 226 | 1.0 | 3.0 | 0.00 | 0.00 | 0.00 | 64 | 1013.8 |
| 20260508043504 | 50 | 230 | 0.0 | 0.0 | 0.00 | 0.00 | 0.00 | 64 | 1013.9 |
| 20260508042505 | 50 | 217 | 1.0 | 3.0 | 0.00 | 0.00 | 0.00 | 63 | 1013.9 |
| 20260508042003 | 50 | 220 | 0.0 | 1.0 | 0.00 | 0.00 | 0.00 | 64 | 1014.0 |
| 20260508041005 | 50 | 240 | 0.0 | 0.0 | 0.00 | 0.00 | 0.00 | 63 | 1014.0 |
| 20260508040505 | 50 | 240 | 0.0 | 1.0 | 0.00 | 0.00 | 0.00 | 63 | 1014.0 |
| 20260508040005 | 50 | 251 | 1.0 | 2.0 | 0.00 | 0.00 | 0.00 | 62 | 1014.0 |
| 20260508035505 | 51 | 130 | 0.0 | 0.0 | 0.00 | 0.00 | 0.00 | 61 | 1014.1 |
| 20260508035004 | 51 | 129 | 0.0 | 1.0 | 0.00 | 0.00 | 0.00 | 61 | 1014.1 |
| 20260508034505 | 51 | 224 | 0.0 | 1.0 | 0.00 | 0.00 | 0.00 | 60 | 1014.1 |
| 20260508034005 | 51 | 224 | 0.0 | 1.0 | 0.00 | 0.00 | 0.00 | 59 | 1014.0 |
| 20260508033505 | 51 | 252 | 0.0 | 1.0 | 0.00 | 0.00 | 0.00 | 60 | 1014.1 |
| 20260508033005 | 50 | 245 | 0.0 | 2.0 | 0.00 | 0.00 | 0.00 | 59 | 1014.0 |
| 20260508032505 | 50 | 172 | 0.0 | 0.0 | 0.00 | 0.00 | 0.00 | 61 | 1013.9 |
| 20260508030505 | 50 | 172 | 0.0 | 0.0 | 0.00 | 0.00 | 0.00 | 61 | 1013.8 |
| 20260508030005 | 50 | 172 | 0.0 | 0.0 | 0.00 | 0.00 | 0.00 | 62 | 1013.8 |
| 20260508025505 | 49 | 172 | 0.0 | 0.0 | 0.00 | 0.00 | 0.00 | 62 | 1013.8 |
| 20260508024504 | 49 | 221 | 0.0 | 0.0 | 0.00 | 0.00 | 0.00 | 62 | 1013.8 |
| 20260508024005 | 49 | 230 | 0.0 | 0.0 | 0.00 | 0.00 | 0.00 | 63 | 1013.8 |
| 20260508023505 | 49 | 225 | 0.0 | 2.0 | 0.00 | 0.00 | 0.00 | 63 | 1013.8 |
| 20260508023005 | 49 | 220 | 0.0 | 0.0 | 0.00 | 0.00 | 0.00 | 64 | 1013.7 |
| 20260508022504 | 49 | 221 | 0.0 | 0.0 | 0.00 | 0.00 | 0.00 | 64 | 1013.7 |
| 20260508022004 | 50 | 239 | 0.0 | 0.0 | 0.00 | 0.00 | 0.00 | 62 | 1013.8 |
| 20260508021505 | 50 | 239 | 0.0 | 0.0 | 0.00 | 0.00 | 0.00 | 62 | 1013.8 |
| 20260508021005 | 50 | 239 | 0.0 | 0.0 | 0.00 | 0.00 | 0.00 | 61 | 1013.9 |
| 20260508020504 | 50 | 235 | 0.0 | 0.0 | 0.00 | 0.00 | 0.00 | 62 | 1013.8 |
| 20260508020004 | 50 | 235 | 0.0 | 1.0 | 0.00 | 0.00 | 0.00 | 61 | 1013.8 |
| 20260508015505 | 50 | 235 | 0.0 | 0.0 | 0.00 | 0.00 | 0.00 | 60 | 1013.9 |
| 20260508015004 | 51 | 235 | 0.0 | 1.0 | 0.00 | 0.00 | 0.00 | 59 | 1013.9 |
| 20260508014504 | 50 | 228 | 0.0 | 0.0 | 0.00 | 0.00 | 0.00 | 59 | 1013.9 |
| 20260508014005 | 50 | 228 | 0.0 | 0.0 | 0.00 | 0.00 | 0.00 | 59 | 1013.8 |
| 20260508013505 | 51 | 228 | 0.0 | 0.0 | 0.00 | 0.00 | 0.00 | 58 | 1013.9 |
| 20260508012504 | 51 | 228 | 0.0 | 0.0 | 0.00 | 0.00 | 0.00 | 58 | 1013.8 |
| 20260508012005 | 51 | 228 | 0.0 | 0.0 | 0.00 | 0.00 | 0.00 | 58 | 1013.9 |
| 20260508011505 | 51 | 228 | 0.0 | 0.0 | 0.00 | 0.00 | 0.00 | 59 | 1013.9 |
| 20260508010005 | 52 | 228 | 0.0 | 0.0 | 0.00 | 0.00 | 0.00 | 56 | 1013.7 |
| 20260508005004 | 52 | 228 | 0.0 | 0.0 | 0.00 | 0.00 | 0.00 | 54 | 1013.8 |
| 20260508004505 | 53 | 228 | 0.0 | 0.0 | 0.00 | 0.00 | 0.00 | 53 | 1013.8 |
| 20260508004004 | 53 | 228 | 0.0 | 0.0 | 0.00 | 0.00 | 0.00 | 52 | 1013.7 |
| 20260508003504 | 53 | 228 | 0.0 | 0.0 | 0.00 | 0.00 | 0.00 | 51 | 1013.7 |
| 20260508003005 | 53 | 228 | 0.0 | 0.0 | 0.00 | 0.00 | 0.00 | 51 | 1013.7 |
| 20260508002504 | 54 | 228 | 0.0 | 1.0 | 0.00 | 0.00 | 0.00 | 50 | 1013.6 |
| 20260508001505 | 55 | 241 | 0.0 | 2.0 | 0.00 | 0.00 | 0.00 | 48 | 1013.6 |
| 20260508001004 | 55 | 271 | 0.0 | 2.0 | 0.00 | 0.00 | 0.00 | 48 | 1013.6 |
| 20260508000505 | 55 | 216 | 0.0 | 2.0 | 0.00 | 0.00 | 0.00 | 47 | 1013.5 |
| 20260508000004 | 56 | 248 | 0.0 | 3.0 | 0.00 | 0.00 | 0.00 | 46 | 1013.5 |
| 20260507235504 | 56 | 217 | 1.0 | 6.0 | 0.00 | 0.00 | 0.00 | 45 | 1013.4 |
| 20260507235005 | 56 | 179 | 0.0 | 5.0 | 0.00 | 0.00 | 0.00 | 45 | 1013.4 |
| 20260507234504 | 56 | 259 | 0.0 | 2.0 | 0.00 | 0.00 | 0.00 | 45 | 1013.4 |
| 20260507234004 | 57 | 344 | 1.0 | 3.0 | 0.00 | 0.00 | 0.00 | 44 | 1013.5 |
| 20260507233505 | 57 | 328 | 2.0 | 5.0 | 0.00 | 0.00 | 0.00 | 42 | 1013.4 |
| 20260507233004 | 58 | 275 | 2.0 | 5.0 | 0.00 | 0.00 | 0.00 | 42 | 1013.3 |
| 20260507232004 | 58 | 316 | 4.0 | 6.0 | 0.00 | 0.00 | 0.00 | 41 | 1013.4 |
| 20260507231004 | 58 | 294 | 4.0 | 9.0 | 0.00 | 0.00 | 0.00 | 40 | 1013.4 |
| 20260507230004 | 58 | 303 | 3.0 | 6.0 | 0.00 | 0.00 | 0.00 | 41 | 1013.4 |
| 20260507225004 | 59 | 0 | 2.0 | 6.0 | 0.00 | 0.00 | 0.00 | 41 | 1013.3 |
| 20260507224505 | 59 | 316 | 2.0 | 6.0 | 0.00 | 0.00 | 0.00 | 42 | 1013.3 |
| 20260507224004 | 58 | 301 | 1.0 | 6.0 | 0.00 | 0.00 | 0.00 | 41 | 1013.4 |
| 20260507223504 | 58 | 323 | 3.0 | 8.0 | 0.00 | 0.00 | 0.00 | 40 | 1013.4 |
| 20260507223004 | 59 | 328 | 2.0 | 6.0 | 0.00 | 0.00 | 0.00 | 39 | 1013.5 |
| 20260507222504 | 59 | 254 | 2.0 | 6.0 | 0.00 | 0.00 | 0.00 | 39 | 1013.6 |
| 20260507222005 | 59 | 310 | 3.0 | 6.0 | 0.00 | 0.00 | 0.00 | 41 | 1013.6 |
| 20260507221504 | 59 | 300 | 2.0 | 6.0 | 0.00 | 0.00 | 0.00 | 41 | 1013.7 |
| 20260507221005 | 59 | 309 | 3.0 | 6.0 | 0.00 | 0.00 | 0.00 | 42 | 1013.7 |
| 20260507220504 | 58 | 252 | 3.0 | 7.0 | 0.00 | 0.00 | 0.00 | 42 | 1013.8 |
| 20260507215504 | 58 | 300 | 2.0 | 8.0 | 0.00 | 0.00 | 0.00 | 44 | 1013.9 |
| 20260507215004 | 58 | 314 | 2.0 | 7.0 | 0.00 | 0.00 | 0.00 | 43 | 1013.8 |
| 20260507214504 | 58 | 7 | 7.0 | 10.0 | 0.00 | 0.00 | 0.00 | 42 | 1013.8 |
| 20260507214005 | 58 | 347 | 2.0 | 6.0 | 0.00 | 0.00 | 0.00 | 44 | 1013.7 |
| 20260507213504 | 57 | 332 | 6.0 | 7.0 | 0.00 | 0.00 | 0.00 | 43 | 1013.7 |
| 20260507213005 | 57 | 2 | 5.0 | 8.0 | 0.00 | 0.00 | 0.00 | 43 | 1013.7 |
| 20260507212504 | 57 | 342 | 2.0 | 7.0 | 0.00 | 0.00 | 0.00 | 44 | 1013.7 |
| 20260507212004 | 58 | 323 | 5.0 | 13.0 | 0.00 | 0.00 | 0.00 | 43 | 1013.7 |
| 20260507211504 | 58 | 315 | 3.0 | 8.0 | 0.00 | 0.00 | 0.00 | 42 | 1013.7 |
| 20260507211004 | 58 | 0 | 5.0 | 10.0 | 0.00 | 0.00 | 0.00 | 41 | 1013.7 |
| 20260507210504 | 59 | 305 | 3.0 | 10.0 | 0.00 | 0.00 | 0.00 | 42 | 1013.6 |
| 20260507210005 | 58 | 299 | 7.0 | 13.0 | 0.00 | 0.00 | 0.00 | 41 | 1013.7 |